createdAt,value
2023-04-29T00:02:06.787Z,36.22
2023-04-29T00:04:35.329Z,43.92
2023-04-29T00:07:03.043Z,40.95
2023-04-29T00:09:30.657Z,34.88
2023-04-29T00:11:58.660Z,38.08
2023-04-29T00:14:26.164Z,38.47
2023-04-29T00:16:53.715Z,35.10
2023-04-29T00:19:21.442Z,34.72
2023-04-29T00:21:49.471Z,37.55
2023-04-29T00:24:17.286Z,38.13
2023-04-29T00:26:44.856Z,39.03
2023-04-29T00:29:12.473Z,34.47
2023-04-29T00:31:40.063Z,36.17
2023-04-29T00:34:07.604Z,35.92
2023-04-29T00:36:35.131Z,40.00
2023-04-29T00:39:03.192Z,41.85
2023-04-29T00:41:32.205Z,46.35
2023-04-29T00:43:59.762Z,37.95
2023-04-29T00:46:27.933Z,42.95
2023-04-29T00:48:55.508Z,40.35
2023-04-29T00:51:23.205Z,38.00
2023-04-29T00:53:50.925Z,46.55
2023-04-29T00:56:21.521Z,46.17
2023-04-29T00:58:52.808Z,41.97
2023-04-29T01:01:21.961Z,42.17
2023-04-29T01:03:51.054Z,43.38
2023-04-29T01:06:33.507Z,38.67
2023-04-29T01:09:17.938Z,36.58
2023-04-29T01:12:07.199Z,36.83
2023-04-29T01:14:35.949Z,41.55
2023-04-29T01:17:11.477Z,36.88
2023-04-29T01:19:46.108Z,39.33
2023-04-29T01:22:18.888Z,37.40
2023-04-29T01:24:46.869Z,43.13
2023-04-29T01:27:34.658Z,40.92
2023-04-29T01:30:32.452Z,38.30
2023-04-29T01:33:47.930Z,46.38
2023-04-29T01:36:28.188Z,42.50
2023-04-29T01:39:14.585Z,42.55
2023-04-29T01:42:06.879Z,47.25
2023-04-29T01:44:36.250Z,53.88
2023-04-29T01:47:04.104Z,52.45
2023-04-29T01:49:36.446Z,49.38
2023-04-29T01:52:04.104Z,43.90
2023-04-29T01:54:32.259Z,48.75
2023-04-29T01:57:00.905Z,42.65
2023-04-29T01:59:30.217Z,42.20
2023-04-29T02:01:59.124Z,35.65
2023-04-29T02:04:28.854Z,34.50
2023-04-29T02:06:56.365Z,35.33
2023-04-29T02:09:23.881Z,33.70
2023-04-29T02:11:51.406Z,33.50
2023-04-29T02:14:18.899Z,32.25
2023-04-29T02:16:46.476Z,33.58
2023-04-29T02:19:14.168Z,33.35
2023-04-29T02:21:41.694Z,32.05
2023-04-29T02:24:09.506Z,29.58
2023-04-29T02:26:38.614Z,35.80
2023-04-29T02:29:06.357Z,34.75
2023-04-29T02:31:33.887Z,31.08
2023-04-29T02:34:01.733Z,31.77
2023-04-29T02:36:29.333Z,31.90
2023-04-29T02:38:57.222Z,27.10
2023-04-29T02:41:25.996Z,31.48
2023-04-29T02:43:53.806Z,33.33
2023-04-29T02:46:21.394Z,31.77
2023-04-29T02:48:48.874Z,33.97
2023-04-29T02:51:18.004Z,35.13
2023-04-29T02:53:45.689Z,30.52
2023-04-29T02:56:13.212Z,31.63
2023-04-29T02:58:42.285Z,33.58
2023-04-29T03:01:09.767Z,38.28
2023-04-29T03:03:37.859Z,32.42
2023-04-29T03:06:05.648Z,35.42
2023-04-29T03:08:33.347Z,30.50
2023-04-29T03:11:00.846Z,33.13
2023-04-29T03:13:28.450Z,34.17
2023-04-29T03:15:58.766Z,31.75
2023-04-29T03:18:26.288Z,31.33
2023-04-29T03:20:54.400Z,29.23
2023-04-29T03:23:22.660Z,31.08
2023-04-29T03:25:50.233Z,28.10
2023-04-29T03:28:18.054Z,28.08
2023-04-29T03:30:45.623Z,33.05
2023-04-29T03:33:13.131Z,28.30
2023-04-29T03:35:40.842Z,31.83
2023-04-29T03:38:08.360Z,29.48
2023-04-29T03:40:35.990Z,27.58
2023-04-29T03:43:04.108Z,29.92
2023-04-29T03:45:31.732Z,35.60
2023-04-29T03:47:59.265Z,35.47
2023-04-29T03:50:26.841Z,43.65
2023-04-29T03:52:54.417Z,43.50
2023-04-29T03:55:21.925Z,44.22
2023-04-29T03:57:49.504Z,40.10
2023-04-29T04:00:17.453Z,35.55
2023-04-29T04:02:45.679Z,37.88
2023-04-29T04:05:13.747Z,42.72
2023-04-29T04:07:41.327Z,43.53
2023-04-29T04:10:09.193Z,44.38
2023-04-29T04:12:36.789Z,41.38
2023-04-29T04:15:04.535Z,42.05
2023-04-29T04:17:32.081Z,49.83
2023-04-29T04:19:59.640Z,46.22
2023-04-29T04:22:27.157Z,49.10
2023-04-29T04:24:58.042Z,47.38
2023-04-29T04:27:25.698Z,48.80
2023-04-29T04:29:56.359Z,47.40
2023-04-29T04:32:23.992Z,46.08
2023-04-29T04:34:51.879Z,47.70
2023-04-29T04:37:19.441Z,48.45
2023-04-29T04:39:47.443Z,53.25
2023-04-29T04:42:15.112Z,42.72
2023-04-29T04:44:42.574Z,49.58
2023-04-29T04:47:11.692Z,41.70
2023-04-29T04:49:39.534Z,43.95
2023-04-29T04:52:07.158Z,50.58
2023-04-29T04:54:35.605Z,39.42
2023-04-29T04:57:06.331Z,44.22
2023-04-29T04:59:34.435Z,46.85
2023-04-29T05:02:01.980Z,44.88
2023-04-29T05:04:29.649Z,40.17
2023-04-29T05:06:57.271Z,44.42
2023-04-29T05:09:24.831Z,38.60
2023-04-29T05:11:52.502Z,38.40
2023-04-29T05:14:20.008Z,44.17
2023-04-29T05:16:47.608Z,39.63
2023-04-29T05:19:15.175Z,41.53
2023-04-29T05:21:42.646Z,41.90
2023-04-29T05:24:10.348Z,35.58
2023-04-29T05:26:38.542Z,41.75
2023-04-29T05:29:06.033Z,40.35
2023-04-29T05:31:33.651Z,38.78
2023-04-29T05:34:01.297Z,39.40
2023-04-29T05:36:29.162Z,42.20
2023-04-29T05:38:56.806Z,37.25
2023-04-29T05:41:25.182Z,39.38
2023-04-29T05:43:52.956Z,41.03
2023-04-29T05:46:20.811Z,42.28
2023-04-29T05:48:48.332Z,38.10
2023-04-29T05:51:17.332Z,39.13
2023-04-29T05:53:45.122Z,38.42
2023-04-29T05:56:12.716Z,42.08
2023-04-29T05:58:40.399Z,36.95
2023-04-29T06:01:07.943Z,38.75
2023-04-29T06:03:36.100Z,33.47
2023-04-29T06:06:04.589Z,34.53
2023-04-29T06:08:32.348Z,35.67
2023-04-29T06:10:59.808Z,35.63
2023-04-29T06:13:27.628Z,32.88
2023-04-29T06:15:55.140Z,34.80
2023-04-29T06:18:22.793Z,35.30
2023-04-29T06:20:52.143Z,34.33
2023-04-29T06:23:19.603Z,34.00
2023-04-29T06:25:47.160Z,34.00
2023-04-29T06:28:14.925Z,32.78
2023-04-29T06:30:42.470Z,26.38
2023-04-29T06:33:10.000Z,33.40
2023-04-29T06:35:41.344Z,37.47
2023-04-29T06:38:09.163Z,33.88
2023-04-29T06:40:36.724Z,29.85
2023-04-29T06:43:04.829Z,32.17
2023-04-29T06:45:32.968Z,30.27
2023-04-29T06:48:00.754Z,41.35
2023-04-29T06:50:28.866Z,34.03
2023-04-29T06:52:56.865Z,37.45
2023-04-29T06:55:24.505Z,38.20
2023-04-29T06:57:52.165Z,31.08
2023-04-29T07:00:21.453Z,30.13
2023-04-29T07:02:49.015Z,34.80
2023-04-29T07:05:16.710Z,38.35
2023-04-29T07:07:44.285Z,28.55
2023-04-29T07:10:11.786Z,33.05
2023-04-29T07:12:39.449Z,33.10
2023-04-29T07:15:07.854Z,27.52
2023-04-29T07:17:35.440Z,30.33
2023-04-29T07:20:04.335Z,36.00
2023-04-29T07:22:31.956Z,38.95
2023-04-29T07:24:59.538Z,33.08
2023-04-29T07:27:27.305Z,34.40
2023-04-29T07:29:54.895Z,28.98
2023-04-29T07:32:23.009Z,29.92
2023-04-29T07:34:50.564Z,34.53
2023-04-29T07:37:18.198Z,31.60
2023-04-29T07:39:46.164Z,35.83
2023-04-29T07:42:13.751Z,27.40
2023-04-29T07:44:41.574Z,32.55
2023-04-29T07:47:09.093Z,39.55
2023-04-29T07:49:36.912Z,28.23
2023-04-29T07:52:08.022Z,33.80
2023-04-29T07:54:38.639Z,30.58
2023-04-29T07:57:06.243Z,28.75
2023-04-29T07:59:34.102Z,30.77
2023-04-29T08:02:01.815Z,25.67
2023-04-29T08:04:29.657Z,28.52
2023-04-29T08:06:57.360Z,28.98
2023-04-29T08:09:24.893Z,29.30
2023-04-29T08:11:52.376Z,27.35
2023-04-29T08:14:19.959Z,26.35
2023-04-29T08:16:47.827Z,30.30
2023-04-29T08:19:15.293Z,36.17
2023-04-29T08:21:42.954Z,30.17
2023-04-29T08:24:10.669Z,25.63
2023-04-29T08:26:40.036Z,32.03
2023-04-29T08:29:07.859Z,26.13
2023-04-29T08:31:35.672Z,24.45
2023-04-29T08:34:03.242Z,26.42
2023-04-29T08:36:30.812Z,34.92
2023-04-29T08:38:58.393Z,27.00
2023-04-29T08:41:26.009Z,29.23
2023-04-29T08:43:53.632Z,29.48
2023-04-29T08:46:23.928Z,27.75
2023-04-29T08:48:52.556Z,26.35
2023-04-29T08:51:20.185Z,26.75
2023-04-29T08:53:58.696Z,28.52
2023-04-29T08:56:28.164Z,24.95
2023-04-29T08:58:59.142Z,26.70
2023-04-29T09:01:29.479Z,26.92
2023-04-29T09:04:14.932Z,29.30
2023-04-29T09:06:42.495Z,27.10
2023-04-29T09:09:10.542Z,21.92
2023-04-29T09:11:38.643Z,26.42
2023-04-29T09:14:06.702Z,20.73
2023-04-29T09:16:35.722Z,22.17
2023-04-29T09:19:03.295Z,23.42
2023-04-29T09:21:33.752Z,19.83
2023-04-29T09:24:03.542Z,20.33
2023-04-29T09:26:44.023Z,20.23
2023-04-29T09:29:18.506Z,21.42
2023-04-29T09:31:47.005Z,22.73
2023-04-29T09:34:15.111Z,19.77
2023-04-29T09:36:51.079Z,18.27
2023-04-29T09:39:20.411Z,18.50
2023-04-29T09:41:53.876Z,23.92
2023-04-29T09:44:25.145Z,17.45
2023-04-29T09:46:57.417Z,16.60
2023-04-29T09:49:26.600Z,16.55
2023-04-29T09:51:56.717Z,19.85
2023-04-29T09:54:28.544Z,18.13
2023-04-29T09:56:58.409Z,15.80
2023-04-29T09:59:26.634Z,16.67
2023-04-29T10:01:58.945Z,19.55
2023-04-29T10:04:28.084Z,19.08
2023-04-29T10:06:56.743Z,16.85
2023-04-29T10:09:24.874Z,19.40
2023-04-29T10:11:53.944Z,15.43
2023-04-29T10:14:26.393Z,19.40
2023-04-29T10:17:08.693Z,17.30
2023-04-29T10:19:40.190Z,15.93
2023-04-29T10:22:17.256Z,20.52
2023-04-29T10:24:46.015Z,15.80
2023-04-29T10:27:14.572Z,22.75
2023-04-29T10:29:44.661Z,18.17
2023-04-29T10:32:14.615Z,17.17
2023-04-29T10:34:43.644Z,19.48
2023-04-29T10:37:12.155Z,15.65
2023-04-29T10:39:48.227Z,14.80
2023-04-29T10:42:50.935Z,16.33
2023-04-29T10:45:24.131Z,16.17
2023-04-29T10:48:06.653Z,16.13
2023-04-29T10:50:46.912Z,17.00
2023-04-29T10:53:23.798Z,14.80
2023-04-29T10:55:59.939Z,14.43
2023-04-29T10:58:41.380Z,15.48
2023-04-29T11:01:11.532Z,14.98
2023-04-29T11:03:59.934Z,16.02
2023-04-29T11:06:36.586Z,15.88
2023-04-29T11:09:20.063Z,15.45
2023-04-29T11:11:58.968Z,14.13
2023-04-29T11:14:30.720Z,16.20
2023-04-29T11:17:03.577Z,16.10
2023-04-29T11:19:36.871Z,15.73
2023-04-29T11:22:10.187Z,13.57
2023-04-29T11:24:49.504Z,13.77
2023-04-29T11:27:18.875Z,14.98
2023-04-29T11:29:50.947Z,12.57
2023-04-29T11:32:23.323Z,14.90
2023-04-29T11:34:51.050Z,16.85
2023-04-29T11:37:23.744Z,14.52
2023-04-29T11:39:52.512Z,14.45
2023-04-29T11:42:23.642Z,16.48
2023-04-29T11:44:57.126Z,17.60
2023-04-29T11:50:10.317Z,14.13
2023-04-29T11:52:40.909Z,14.88
2023-04-29T11:55:12.365Z,13.13
2023-04-29T11:57:40.692Z,11.95
2023-04-29T12:00:13.139Z,11.95
2023-04-29T12:02:45.246Z,12.83
2023-04-29T12:05:13.723Z,10.93
2023-04-29T12:07:41.646Z,13.77
2023-04-29T12:10:11.440Z,11.18
2023-04-29T12:12:41.593Z,14.10
2023-04-29T12:15:10.568Z,13.43
2023-04-29T12:17:39.617Z,14.38
2023-04-29T12:20:11.510Z,13.27
2023-04-29T12:22:39.534Z,11.75
2023-04-29T12:25:08.119Z,14.02
2023-04-29T12:27:37.151Z,13.48
2023-04-29T12:30:09.749Z,13.65
2023-04-29T12:32:38.686Z,13.23
2023-04-29T12:35:07.488Z,13.50
2023-04-29T12:37:35.597Z,13.13
2023-04-29T12:40:03.842Z,11.95
2023-04-29T12:42:34.584Z,14.77
2023-04-29T12:45:02.112Z,14.93
2023-04-29T12:47:37.377Z,15.68
2023-04-29T12:50:07.520Z,14.32
2023-04-29T12:52:36.726Z,11.98
2023-04-29T12:55:05.028Z,13.35
2023-04-29T12:57:32.823Z,16.30
2023-04-29T13:00:00.520Z,11.85
2023-04-29T13:02:28.571Z,12.98
2023-04-29T13:04:56.790Z,14.02
2023-04-29T13:07:24.556Z,13.30
2023-04-29T13:09:52.075Z,13.68
2023-04-29T13:12:19.663Z,16.95
2023-04-29T13:14:47.108Z,14.95
2023-04-29T13:17:15.039Z,11.52
2023-04-29T13:19:51.527Z,11.65
2023-04-29T13:22:20.193Z,12.98
2023-04-29T13:24:47.885Z,12.52
2023-04-29T13:27:15.409Z,13.13
2023-04-29T13:29:42.889Z,13.65
2023-04-29T13:32:10.672Z,11.85
2023-04-29T13:34:38.248Z,12.70
2023-04-29T13:37:05.981Z,12.40
2023-04-29T13:39:37.909Z,11.35
2023-04-29T13:42:06.627Z,14.30
2023-04-29T13:44:48.636Z,12.88
2023-04-29T13:47:25.712Z,11.55
2023-04-29T13:50:25.528Z,9.18
2023-04-29T13:55:43.631Z,14.02
2023-04-29T13:58:43.841Z,12.82
2023-04-29T14:01:17.180Z,13.18
2023-04-29T14:03:35.952Z,13.43
2023-04-29T14:06:03.895Z,10.95
2023-04-29T14:08:31.555Z,11.38
2023-04-29T14:10:59.232Z,10.50
2023-04-29T14:13:26.949Z,14.20
2023-04-29T14:15:54.711Z,10.82
2023-04-29T14:18:22.309Z,11.13
2023-04-29T14:20:49.799Z,11.95
2023-04-29T14:23:17.387Z,10.00
2023-04-29T14:25:45.061Z,10.07
2023-04-29T14:28:12.870Z,10.93
2023-04-29T14:30:41.634Z,10.73
2023-04-29T14:33:09.232Z,11.75
2023-04-29T14:35:36.709Z,9.60
2023-04-29T14:38:04.534Z,10.90
2023-04-29T14:40:32.073Z,17.00
2023-04-29T14:42:59.698Z,9.18
2023-04-29T14:45:27.312Z,13.45
2023-04-29T14:47:54.800Z,10.20
2023-04-29T14:50:25.285Z,10.55
2023-04-29T14:52:52.790Z,11.82
2023-04-29T14:55:20.363Z,9.82
2023-04-29T14:57:48.152Z,10.80
2023-04-29T15:00:16.152Z,12.68
2023-04-29T15:02:43.889Z,13.00
2023-04-29T15:05:11.511Z,9.88
2023-04-29T15:07:39.015Z,13.55
2023-04-29T15:10:09.553Z,10.73
2023-04-29T15:12:37.141Z,11.07
2023-04-29T15:15:05.049Z,10.85
2023-04-29T15:17:32.624Z,9.43
2023-04-29T15:20:00.195Z,10.63
2023-04-29T15:22:27.632Z,10.52
2023-04-29T15:24:55.599Z,8.30
2023-04-29T15:27:23.235Z,11.35
2023-04-29T15:29:54.587Z,10.15
2023-04-29T15:32:22.428Z,8.35
2023-04-29T15:34:49.999Z,9.27
2023-04-29T15:37:17.506Z,8.50
2023-04-29T15:39:45.025Z,11.25
2023-04-29T15:42:12.737Z,7.18
2023-04-29T15:44:40.335Z,8.20
2023-04-29T15:47:07.848Z,7.80
2023-04-29T15:49:35.504Z,8.38
2023-04-29T15:52:02.962Z,8.60
2023-04-29T15:54:30.879Z,10.23
2023-04-29T15:56:58.669Z,10.02
2023-04-29T15:59:26.173Z,10.55
2023-04-29T16:01:53.709Z,9.45
2023-04-29T16:04:21.304Z,9.32
2023-04-29T16:06:48.901Z,8.40
2023-04-29T16:09:16.396Z,9.82
2023-04-29T16:11:44.035Z,8.43
2023-04-29T16:14:11.684Z,11.20
2023-04-29T16:16:39.420Z,9.30
2023-04-29T16:19:06.954Z,7.40
2023-04-29T16:21:34.855Z,8.07
2023-04-29T16:24:02.421Z,9.32
2023-04-29T16:26:30.494Z,8.90
2023-04-29T16:28:58.104Z,9.88
2023-04-29T16:31:25.791Z,8.57
2023-04-29T16:33:55.564Z,8.82
2023-04-29T16:36:23.827Z,10.52
2023-04-29T16:38:55.204Z,7.78
2023-04-29T16:41:23.346Z,7.75
2023-04-29T16:43:51.116Z,8.60
2023-04-29T16:46:18.990Z,9.60
2023-04-29T16:48:46.798Z,8.30
2023-04-29T16:51:14.738Z,8.63
2023-04-29T16:54:02.462Z,8.95
2023-04-29T16:56:30.057Z,10.80
2023-04-29T16:58:57.788Z,8.52
2023-04-29T17:01:25.633Z,10.70
2023-04-29T17:03:53.274Z,9.73
2023-04-29T17:06:20.861Z,8.43
2023-04-29T17:08:51.272Z,8.00
2023-04-29T17:11:19.152Z,7.60
2023-04-29T17:13:46.997Z,9.82
2023-04-29T17:16:15.090Z,9.57
2023-04-29T17:18:43.189Z,8.43
2023-04-29T17:21:10.846Z,7.95
2023-04-29T17:23:38.720Z,9.27
2023-04-29T17:26:07.538Z,11.65
2023-04-29T17:28:35.269Z,10.75
2023-04-29T17:31:02.930Z,7.90
2023-04-29T17:33:36.210Z,6.90
2023-04-29T17:36:06.073Z,8.45
2023-04-29T17:38:33.651Z,9.30
2023-04-29T17:41:02.180Z,9.13
2023-04-29T17:43:32.528Z,8.13
2023-04-29T17:46:00.242Z,12.55
2023-04-29T17:48:28.117Z,10.73
2023-04-29T17:50:55.752Z,8.52
2023-04-29T17:53:23.470Z,6.90
2023-04-29T17:55:50.957Z,8.07
2023-04-29T17:58:18.766Z,8.75
2023-04-29T18:00:47.194Z,8.10
2023-04-29T18:03:15.072Z,8.38
2023-04-29T18:05:42.760Z,6.22
2023-04-29T18:08:10.280Z,9.02
2023-04-29T18:10:38.036Z,7.88
2023-04-29T18:13:05.767Z,10.15
2023-04-29T18:15:33.355Z,10.30
2023-04-29T18:18:00.912Z,8.85
2023-04-29T18:20:28.498Z,11.23
2023-04-29T18:22:56.096Z,7.75
2023-04-29T18:25:23.665Z,8.50
2023-04-29T18:27:52.722Z,8.20
2023-04-29T18:30:24.595Z,6.32
2023-04-29T18:32:52.126Z,7.63
2023-04-29T18:35:19.602Z,6.93
2023-04-29T18:37:47.429Z,9.23
2023-04-29T18:40:15.330Z,6.78
2023-04-29T18:42:43.341Z,7.75
2023-04-29T18:45:11.166Z,8.82
2023-04-29T18:47:38.704Z,8.00
2023-04-29T18:50:06.739Z,9.18
2023-04-29T18:52:34.759Z,8.20
2023-04-29T18:55:02.273Z,7.60
2023-04-29T18:57:30.102Z,6.85
2023-04-29T18:59:57.820Z,8.52
2023-04-29T19:02:25.356Z,10.27
2023-04-29T19:04:52.928Z,9.93
2023-04-29T19:07:20.644Z,10.52
2023-04-29T19:09:48.124Z,7.43
2023-04-29T19:12:15.605Z,9.05
2023-04-29T19:14:43.186Z,8.18
2023-04-29T19:17:10.760Z,9.35
2023-04-29T19:19:38.260Z,6.18
2023-04-29T19:22:07.531Z,8.77
2023-04-29T19:24:37.129Z,8.88
2023-04-29T19:27:04.743Z,8.07
2023-04-29T19:29:32.324Z,7.47
2023-04-29T19:31:59.918Z,8.48
2023-04-29T19:34:27.438Z,10.57
2023-04-29T19:36:55.038Z,8.32
2023-04-29T19:39:22.697Z,14.32
2023-04-29T19:41:50.273Z,11.80
2023-04-29T19:44:17.790Z,10.52
2023-04-29T19:46:45.511Z,9.55
2023-04-29T19:49:13.569Z,8.13
2023-04-29T19:51:41.606Z,9.07
2023-04-29T19:54:09.745Z,8.57
2023-04-29T19:56:37.218Z,9.32
2023-04-29T19:59:04.783Z,12.07
2023-04-29T20:01:32.237Z,20.05
2023-04-29T20:03:59.897Z,14.63
2023-04-29T20:06:27.529Z,15.50
2023-04-29T20:08:55.004Z,17.77
2023-04-29T20:11:23.990Z,18.52
2023-04-29T20:13:52.455Z,14.75
2023-04-29T20:16:20.141Z,18.33
2023-04-29T20:18:48.041Z,13.63
2023-04-29T20:21:15.680Z,15.15
2023-04-29T20:23:43.194Z,17.75
2023-04-29T20:26:11.114Z,16.55
2023-04-29T20:28:39.343Z,16.13
2023-04-29T20:31:08.671Z,16.08
2023-04-29T20:33:36.329Z,17.58
2023-04-29T20:36:06.933Z,15.65
2023-04-29T20:38:37.864Z,15.23
2023-04-29T20:41:08.509Z,15.38
2023-04-29T20:43:36.208Z,13.80
2023-04-29T20:46:03.772Z,18.27
2023-04-29T20:48:31.302Z,16.67
2023-04-29T20:50:59.007Z,15.05
2023-04-29T20:53:26.545Z,13.43
2023-04-29T20:55:54.131Z,15.85
2023-04-29T20:58:21.870Z,16.83
2023-04-29T21:00:49.455Z,15.02
2023-04-29T21:03:17.023Z,13.25
2023-04-29T21:05:45.069Z,15.75
2023-04-29T21:08:12.605Z,15.40
2023-04-29T21:10:40.113Z,18.60
2023-04-29T21:13:07.749Z,12.73
2023-04-29T21:15:36.153Z,14.43
2023-04-29T21:18:04.758Z,14.18
2023-04-29T21:20:32.565Z,12.98
2023-04-29T21:23:00.137Z,15.80
2023-04-29T21:25:27.641Z,13.90
2023-04-29T21:27:55.686Z,15.35
2023-04-29T21:30:23.556Z,17.90
2023-04-29T21:32:51.228Z,15.52
2023-04-29T21:35:19.079Z,18.38
2023-04-29T21:37:47.296Z,14.95
2023-04-29T21:40:14.955Z,15.02
2023-04-29T21:42:44.502Z,15.98
2023-04-29T21:45:18.270Z,14.43
2023-04-29T21:47:46.059Z,13.77
2023-04-29T21:50:13.734Z,13.80
2023-04-29T21:52:41.795Z,11.43
2023-04-29T21:55:09.833Z,12.18
2023-04-29T21:57:44.072Z,10.70
2023-04-29T22:00:33.055Z,12.15
2023-04-29T22:03:02.395Z,11.93
2023-04-29T22:05:30.590Z,12.20
2023-04-29T22:08:00.236Z,11.98
2023-04-29T22:10:28.202Z,11.55
2023-04-29T22:12:56.363Z,9.85
2023-04-29T22:15:28.795Z,11.98
2023-04-29T22:17:57.728Z,13.15
2023-04-29T22:20:27.236Z,10.63
2023-04-29T22:22:55.527Z,11.20
2023-04-29T22:25:23.260Z,10.85
2023-04-29T22:27:52.349Z,10.77
2023-04-29T22:30:21.036Z,9.18
2023-04-29T22:32:48.649Z,8.82
2023-04-29T22:35:16.405Z,8.82
2023-04-29T22:37:43.984Z,8.95
2023-04-29T22:40:12.945Z,10.05
2023-04-29T22:42:42.239Z,8.15
2023-04-29T22:45:12.671Z,8.40
2023-04-29T22:47:40.513Z,8.43
2023-04-29T22:50:08.498Z,9.63
2023-04-29T22:52:36.370Z,8.38
2023-04-29T22:55:04.058Z,6.00
2023-04-29T22:57:32.364Z,12.00
2023-04-29T23:00:00.312Z,8.00
2023-04-29T23:02:29.564Z,8.18
2023-04-29T23:04:58.325Z,8.93
2023-04-29T23:07:26.396Z,8.25
2023-04-29T23:09:54.418Z,9.20
2023-04-29T23:12:22.563Z,7.32
2023-04-29T23:14:51.138Z,6.85
2023-04-29T23:17:18.855Z,7.43
2023-04-29T23:19:46.460Z,12.02
2023-04-29T23:22:13.955Z,8.40
2023-04-29T23:24:41.573Z,8.88
2023-04-29T23:27:09.603Z,9.07
2023-04-29T23:29:37.074Z,8.52
2023-04-29T23:32:04.715Z,6.95
2023-04-29T23:34:32.845Z,10.55
2023-04-29T23:37:01.653Z,7.10
2023-04-29T23:39:29.297Z,10.43
2023-04-29T23:41:56.820Z,8.48
2023-04-29T23:44:25.446Z,6.70
2023-04-29T23:46:53.767Z,9.70
2023-04-29T23:49:21.539Z,6.85
2023-04-29T23:51:49.080Z,7.40
2023-04-29T23:54:16.556Z,7.35
2023-04-29T23:56:44.215Z,5.47
2023-04-29T23:59:11.853Z,7.25
